Terminal Aerodrome Forecast
Issued by NWS Cleveland, OH

Home | Current Version | Previous Version | Graphics & Text | Print | Product List | Glossary Off
Versions: 1 2 3 4 5 6 7 8 9 10 11 12 13 14

473
FTUS41 KCLE 260900 AAA
TAFTOL
TAF AMD
KTOL 260900Z 2609/2706 00000KT P6SM FEW250
      TEMPO 2609/2613 4SM BR
     FM261300 00000KT P6SM FEW250=

USA.gov is the U.S. government's official web portal to all federal, state and local government web resources and services.